Time;durP1;ratioP1;P1;durP2;ratioP2;P2;SDS_P1;SDS_P2;PMS_P1;PMS_P2;Temp;Humidity;BMP_temperature;BMP_pressure;BME280_temperature;BME280_humidity;BME280_pressure;Samples;Min_cycle;Max_cycle;Signal;HPM_P1;HPM_P2
2021/12/20 00:00:47;;;;;;;35.90;7.38;;;;;;;;;;5043710;28;20128;-39
2021/12/20 00:03:14;;;;;;;35.53;6.13;;;;;;;;;;5032982;28;20053;-39
2021/12/20 00:05:40;;;;;;;39.45;6.18;;;;;;;;;;5031554;28;20030;-39
2021/12/20 00:08:06;;;;;;;35.15;5.45;;;;;;;;;;5032080;28;20030;-38
2021/12/20 00:10:32;;;;;;;39.83;6.75;;;;;;;;;;5032722;28;20432;-39
2021/12/20 00:12:58;;;;;;;23.52;6.75;;;;;;;;;;5037834;28;20028;-38
2021/12/20 00:15:25;;;;;;;42.65;7.20;;;;;;;;;;5044136;28;20100;-40
2021/12/20 00:17:51;;;;;;;41.97;6.20;;;;;;;;;;5047198;28;20029;-39
2021/12/20 00:20:17;;;;;;;26.58;6.03;;;;;;;;;;5042088;28;20043;-39
2021/12/20 00:22:43;;;;;;;38.50;6.00;;;;;;;;;;5037809;28;20029;-40
2021/12/20 00:25:10;;;;;;;29.55;6.60;;;;;;;;;;5032683;28;20137;-40
2021/12/20 00:27:36;;;;;;;45.80;6.00;;;;;;;;;;5039851;28;20106;-40
2021/12/20 00:30:03;;;;;;;32.65;5.68;;;;;;;;;;5042662;28;20029;-39
2021/12/20 00:32:29;;;;;;;25.02;5.55;;;;;;;;;;5032398;28;20081;-39
2021/12/20 00:34:55;;;;;;;22.08;4.95;;;;;;;;;;5022492;28;20029;-39
2021/12/20 00:40:22;;;;;;;26.93;5.70;;;;;;;;;;5041598;28;20333;-39
2021/12/20 00:42:48;;;;;;;24.52;4.78;;;;;;;;;;5035344;28;20268;-40
2021/12/20 00:45:15;;;;;;;49.97;7.55;;;;;;;;;;5033314;28;20045;-39
2021/12/20 00:47:41;;;;;;;31.85;5.95;;;;;;;;;;5032967;28;20445;-39
2021/12/20 00:50:08;;;;;;;28.77;7.13;;;;;;;;;;5021360;28;20028;-39
2021/12/20 00:52:34;;;;;;;31.65;6.05;;;;;;;;;;5012587;28;20461;-39
2021/12/20 00:55:00;;;;;;;34.60;5.78;;;;;;;;;;5036254;28;20052;-38
2021/12/20 00:57:26;;;;;;;36.55;5.93;;;;;;;;;;5046086;28;20071;-39
2021/12/20 00:59:52;;;;;;;29.50;7.30;;;;;;;;;;5037121;28;20053;-39
2021/12/20 01:02:18;;;;;;;34.10;6.70;;;;;;;;;;5044180;28;20059;-40
2021/12/20 01:04:44;;;;;;;28.83;5.63;;;;;;;;;;5043396;28;20070;-39
2021/12/20 01:07:11;;;;;;;34.72;6.38;;;;;;;;;;5032734;28;20049;-39
2021/12/20 01:09:37;;;;;;;21.77;5.90;;;;;;;;;;5042591;28;20028;-39
2021/12/20 01:12:07;;;;;;;35.25;6.47;;;;;;;;;;5036952;28;20032;-39
2021/12/20 01:14:36;;;;;;;35.15;6.35;;;;;;;;;;5033396;28;20411;-38
2021/12/20 01:17:05;;;;;;;35.85;7.93;;;;;;;;;;5052600;28;20381;-38
2021/12/20 01:19:31;;;;;;;25.63;5.75;;;;;;;;;;5032705;28;20059;-39
2021/12/20 01:21:57;;;;;;;33.08;7.07;;;;;;;;;;5032672;28;20033;-39
2021/12/20 01:24:23;;;;;;;20.58;6.72;;;;;;;;;;5015337;28;20547;-39
2021/12/20 01:26:49;;;;;;;17.52;5.45;;;;;;;;;;5049355;28;20032;-38
2021/12/20 01:29:15;;;;;;;24.27;5.47;;;;;;;;;;5039726;28;20473;-39
2021/12/20 01:31:42;;;;;;;20.83;6.30;;;;;;;;;;5035043;28;20108;-38
2021/12/20 01:34:08;;;;;;;27.63;6.88;;;;;;;;;;5033206;28;20029;-38
2021/12/20 01:36:34;;;;;;;24.48;5.45;;;;;;;;;;5025259;28;20044;-37
2021/12/20 01:39:00;;;;;;;30.73;6.65;;;;;;;;;;5027841;28;20112;-39
2021/12/20 01:41:26;;;;;;;17.50;6.10;;;;;;;;;;5032807;28;20040;-38
2021/12/20 01:43:55;;;;;;;22.98;7.28;;;;;;;;;;5014973;28;20048;-39
2021/12/20 01:46:23;;;;;;;28.45;5.40;;;;;;;;;;5024167;28;20030;-38
2021/12/20 01:48:49;;;;;;;25.73;5.85;;;;;;;;;;5043973;28;21268;-38
2021/12/20 01:54:08;;;;;;;24.17;5.85;;;;;;;;;;5010138;28;20051;-39
2021/12/20 01:56:37;;;;;;;23.35;5.28;;;;;;;;;;5041945;28;20384;-38
2021/12/20 01:59:04;;;;;;;20.88;4.90;;;;;;;;;;5041838;28;20091;-39
2021/12/20 02:01:30;;;;;;;24.50;4.07;;;;;;;;;;5040995;28;20021;-39
2021/12/20 02:04:00;;;;;;;16.83;4.43;;;;;;;;;;5048584;28;20033;-39
2021/12/20 02:06:33;;;;;;;26.48;5.20;;;;;;;;;;5032974;28;20060;-39
2021/12/20 02:09:01;;;;;;;15.27;4.20;;;;;;;;;;5015814;28;20026;-39
2021/12/20 02:11:27;;;;;;;39.38;5.47;;;;;;;;;;5015861;28;20112;-39
2021/12/20 02:13:53;;;;;;;20.95;5.28;;;;;;;;;;5031870;28;20084;-39
2021/12/20 02:16:19;;;;;;;27.52;5.63;;;;;;;;;;5039544;28;20063;-40
2021/12/20 02:18:45;;;;;;;28.90;5.70;;;;;;;;;;5051756;28;20032;-39
2021/12/20 02:21:12;;;;;;;20.17;4.82;;;;;;;;;;5039242;28;20022;-39
2021/12/20 02:23:38;;;;;;;21.00;4.78;;;;;;;;;;5040426;28;20075;-39
2021/12/20 02:26:05;;;;;;;22.23;5.32;;;;;;;;;;5044540;28;20380;-39
2021/12/20 02:28:37;;;;;;;25.92;4.63;;;;;;;;;;5035164;28;20051;-39
2021/12/20 02:38:58;;;;;;;28.58;4.97;;;;;;;;;;5032165;28;20358;-39
2021/12/20 02:41:33;;;;;;;25.50;4.75;;;;;;;;;;5037749;28;20044;-38
2021/12/20 02:44:05;;;;;;;27.27;5.07;;;;;;;;;;5030087;28;20040;-39
2021/12/20 02:49:07;;;;;;;24.42;5.03;;;;;;;;;;5033031;28;20057;-36
2021/12/20 02:51:33;;;;;;;15.85;4.05;;;;;;;;;;5037009;28;20029;-38
2021/12/20 02:54:00;;;;;;;13.77;4.55;;;;;;;;;;5035136;28;20026;-39
2021/12/20 02:56:26;;;;;;;37.50;5.53;;;;;;;;;;5035004;28;20449;-39
2021/12/20 02:58:53;;;;;;;23.35;4.72;;;;;;;;;;5020778;28;20029;-39
2021/12/20 03:01:20;;;;;;;31.88;4.43;;;;;;;;;;5035831;28;20053;-39
2021/12/20 03:03:47;;;;;;;23.35;5.30;;;;;;;;;;5032844;28;20096;-38
2021/12/20 03:06:19;;;;;;;33.47;5.60;;;;;;;;;;5031947;28;20033;-39
2021/12/20 03:08:47;;;;;;;42.92;6.18;;;;;;;;;;5032273;28;20172;-39
2021/12/20 03:11:14;;;;;;;14.10;4.13;;;;;;;;;;5034468;28;20020;-39
2021/12/20 03:13:40;;;;;;;17.10;5.65;;;;;;;;;;5035249;28;20079;-39
2021/12/20 03:16:06;;;;;;;39.40;5.53;;;;;;;;;;5033049;28;20072;-38
2021/12/20 03:18:32;;;;;;;27.67;5.60;;;;;;;;;;5033426;28;20061;-39
2021/12/20 03:20:58;;;;;;;23.67;4.70;;;;;;;;;;5031140;28;20028;-39
2021/12/20 03:23:25;;;;;;;30.50;5.10;;;;;;;;;;5031625;28;20053;-38
2021/12/20 03:25:51;;;;;;;23.65;4.50;;;;;;;;;;5035157;28;20033;-38
2021/12/20 03:28:17;;;;;;;27.67;5.30;;;;;;;;;;5034324;28;20443;-39
2021/12/20 03:30:44;;;;;;;30.08;5.30;;;;;;;;;;5031934;28;20473;-38
2021/12/20 03:33:10;;;;;;;25.45;4.50;;;;;;;;;;5038167;28;20029;-38
2021/12/20 03:35:36;;;;;;;18.48;4.72;;;;;;;;;;5041790;28;20320;-38
2021/12/20 03:38:02;;;;;;;24.02;5.72;;;;;;;;;;5038111;28;20021;-39
2021/12/20 03:40:28;;;;;;;28.65;5.03;;;;;;;;;;5039781;28;20412;-39
2021/12/20 03:42:55;;;;;;;26.52;5.80;;;;;;;;;;5037135;28;20029;-38
2021/12/20 03:45:21;;;;;;;20.33;6.13;;;;;;;;;;5040906;28;20388;-39
2021/12/20 03:47:47;;;;;;;27.42;5.30;;;;;;;;;;5037289;28;20025;-39
2021/12/20 03:50:14;;;;;;;24.95;5.35;;;;;;;;;;5041692;28;20926;-39
2021/12/20 03:52:40;;;;;;;24.70;5.68;;;;;;;;;;5040903;28;20049;-39
2021/12/20 03:55:07;;;;;;;21.85;5.32;;;;;;;;;;5039673;28;20029;-38
2021/12/20 03:57:33;;;;;;;19.42;4.25;;;;;;;;;;5039959;28;20184;-39
2021/12/20 03:59:59;;;;;;;22.48;5.15;;;;;;;;;;5040259;28;20048;-38
2021/12/20 04:02:26;;;;;;;32.35;7.03;;;;;;;;;;5036948;28;20029;-38
2021/12/20 04:04:52;;;;;;;17.33;4.57;;;;;;;;;;5037187;28;20112;-39
2021/12/20 04:07:18;;;;;;;20.23;4.90;;;;;;;;;;5037765;28;20041;-40
2021/12/20 04:09:44;;;;;;;22.63;4.82;;;;;;;;;;5034572;28;20125;-38
2021/12/20 04:12:10;;;;;;;18.60;4.25;;;;;;;;;;5037241;28;20036;-38
2021/12/20 04:14:37;;;;;;;14.55;5.00;;;;;;;;;;5040465;28;20064;-38
2021/12/20 04:17:03;;;;;;;21.48;5.60;;;;;;;;;;5039658;28;20026;-39
2021/12/20 04:19:29;;;;;;;17.02;4.10;;;;;;;;;;5035073;28;20021;-38
2021/12/20 04:21:55;;;;;;;29.10;5.07;;;;;;;;;;5037195;28;20037;-37
2021/12/20 04:24:21;;;;;;;18.02;4.07;;;;;;;;;;5034102;28;20089;-37
2021/12/20 04:26:47;;;;;;;25.45;5.18;;;;;;;;;;5042106;28;20114;-38
2021/12/20 04:29:13;;;;;;;19.80;5.32;;;;;;;;;;5042701;28;20021;-39
2021/12/20 04:31:39;;;;;;;16.40;4.72;;;;;;;;;;5037037;28;20476;-38
2021/12/20 04:34:05;;;;;;;16.80;4.60;;;;;;;;;;5044087;28;20437;-38
2021/12/20 04:36:33;;;;;;;25.75;5.80;;;;;;;;;;5038178;28;20108;-38
2021/12/20 04:39:00;;;;;;;25.52;5.47;;;;;;;;;;5035830;28;20052;-38
2021/12/20 04:41:26;;;;;;;18.75;4.60;;;;;;;;;;5028108;28;20128;-38
2021/12/20 04:43:52;;;;;;;21.88;5.13;;;;;;;;;;5016882;28;20029;-38
2021/12/20 04:46:18;;;;;;;17.55;4.22;;;;;;;;;;5041302;28;20060;-39
2021/12/20 04:48:44;;;;;;;22.05;4.65;;;;;;;;;;5031355;28;20065;-38
2021/12/20 04:51:10;;;;;;;15.15;3.92;;;;;;;;;;5023294;28;20079;-38
2021/12/20 04:53:36;;;;;;;29.00;5.20;;;;;;;;;;5034722;28;20044;-38
2021/12/20 04:56:02;;;;;;;17.85;4.85;;;;;;;;;;5038224;28;20053;-38
2021/12/20 04:58:28;;;;;;;17.75;4.88;;;;;;;;;;5049045;28;20031;-37
2021/12/20 05:00:54;;;;;;;17.33;4.53;;;;;;;;;;5043647;28;20624;-39
2021/12/20 05:03:20;;;;;;;20.02;4.60;;;;;;;;;;5037854;28;20033;-38
2021/12/20 05:05:46;;;;;;;13.68;3.30;;;;;;;;;;5044310;28;20044;-39
2021/12/20 05:08:13;;;;;;;14.40;3.85;;;;;;;;;;5034355;28;20025;-38
2021/12/20 05:10:41;;;;;;;13.40;3.92;;;;;;;;;;5033379;28;20021;-39
2021/12/20 05:13:08;;;;;;;15.85;4.32;;;;;;;;;;5033574;28;20029;-38
2021/12/20 05:15:38;;;;;;;22.90;5.10;;;;;;;;;;5028569;28;20477;-38
2021/12/20 05:18:06;;;;;;;22.52;3.90;;;;;;;;;;5052158;28;20033;-37
2021/12/20 05:20:32;;;;;;;17.75;3.38;;;;;;;;;;5046297;28;20384;-39
2021/12/20 05:22:59;;;;;;;17.75;3.72;;;;;;;;;;5042520;28;20037;-39
2021/12/20 05:25:25;;;;;;;25.42;5.25;;;;;;;;;;5045494;28;20284;-38
2021/12/20 05:27:51;;;;;;;20.25;3.58;;;;;;;;;;5046021;28;20060;-38
2021/12/20 05:30:18;;;;;;;20.95;4.60;;;;;;;;;;5037531;28;20025;-37
2021/12/20 05:32:44;;;;;;;18.65;3.92;;;;;;;;;;5050674;28;20074;-39
2021/12/20 05:35:11;;;;;;;9.88;3.55;;;;;;;;;;5032429;28;20029;-38
2021/12/20 05:37:37;;;;;;;11.80;4.15;;;;;;;;;;5057906;22;20052;-41
2021/12/20 05:40:04;;;;;;;15.68;3.67;;;;;;;;;;5014683;28;20116;-39
2021/12/20 05:42:30;;;;;;;21.52;4.30;;;;;;;;;;5014445;28;20026;-40
2021/12/20 05:44:56;;;;;;;16.27;4.13;;;;;;;;;;5017183;28;20060;-40
2021/12/20 05:47:23;;;;;;;16.60;4.50;;;;;;;;;;5018124;28;20036;-40
2021/12/20 05:49:49;;;;;;;18.13;4.72;;;;;;;;;;5013951;28;20025;-40
2021/12/20 05:52:15;;;;;;;18.50;3.75;;;;;;;;;;5018621;28;20052;-40
2021/12/20 05:54:41;;;;;;;11.50;3.75;;;;;;;;;;5016874;28;20049;-41
2021/12/20 05:57:07;;;;;;;18.80;4.32;;;;;;;;;;5016295;28;20053;-39
2021/12/20 05:59:33;;;;;;;20.55;4.20;;;;;;;;;;5012591;28;20025;-39
2021/12/20 06:01:59;;;;;;;22.52;4.10;;;;;;;;;;5013189;28;20033;-40
2021/12/20 06:04:26;;;;;;;12.27;3.67;;;;;;;;;;5014360;28;20037;-40
2021/12/20 06:06:52;;;;;;;15.00;4.05;;;;;;;;;;5016100;28;20350;-42
2021/12/20 06:09:18;;;;;;;15.02;4.07;;;;;;;;;;5017505;28;20026;-42
2021/12/20 06:11:44;;;;;;;20.38;4.22;;;;;;;;;;5016923;28;20479;-41
2021/12/20 06:14:10;;;;;;;17.83;4.22;;;;;;;;;;5017108;28;20028;-41
2021/12/20 06:16:36;;;;;;;39.60;5.28;;;;;;;;;;5017813;28;20025;-41
2021/12/20 06:19:02;;;;;;;12.23;2.97;;;;;;;;;;5013529;28;20488;-40
2021/12/20 06:21:28;;;;;;;14.75;3.95;;;;;;;;;;5019676;28;20060;-38
2021/12/20 06:23:54;;;;;;;19.55;3.92;;;;;;;;;;5015938;28;20128;-41
2021/12/20 06:26:23;;;;;;;12.57;4.18;;;;;;;;;;5015317;28;20053;-39
2021/12/20 06:28:49;;;;;;;18.20;4.55;;;;;;;;;;5014158;28;20465;-40
2021/12/20 06:31:15;;;;;;;19.58;4.40;;;;;;;;;;5014213;28;20040;-41
2021/12/20 06:33:41;;;;;;;13.70;4.30;;;;;;;;;;5013216;28;20109;-40
2021/12/20 06:36:07;;;;;;;24.00;3.88;;;;;;;;;;5017453;28;20125;-41
2021/12/20 06:38:34;;;;;;;15.52;4.10;;;;;;;;;;5014968;28;20186;-40
2021/12/20 06:41:01;;;;;;;19.33;4.05;;;;;;;;;;5013112;28;20021;-40
2021/12/20 06:43:27;;;;;;;19.25;4.22;;;;;;;;;;5013255;28;20099;-39
2021/12/20 06:45:53;;;;;;;19.65;3.70;;;;;;;;;;5016376;28;20385;-39
2021/12/20 06:48:19;;;;;;;16.15;4.68;;;;;;;;;;5015380;28;20042;-39
2021/12/20 06:50:45;;;;;;;18.75;4.50;;;;;;;;;;5013214;28;20025;-39
2021/12/20 06:53:11;;;;;;;14.20;4.03;;;;;;;;;;5015476;28;20033;-40
2021/12/20 06:55:37;;;;;;;19.85;4.68;;;;;;;;;;5021482;28;20127;-39
2021/12/20 06:58:03;;;;;;;17.58;4.10;;;;;;;;;;5015135;28;20026;-39
2021/12/20 07:00:29;;;;;;;18.83;4.22;;;;;;;;;;5014233;28;20044;-40
2021/12/20 07:02:55;;;;;;;10.60;3.13;;;;;;;;;;5022756;28;20052;-39
2021/12/20 07:05:22;;;;;;;14.45;3.95;;;;;;;;;;5017620;28;20054;-39
2021/12/20 07:07:48;;;;;;;22.80;4.47;;;;;;;;;;5017509;28;20030;-39
2021/12/20 07:10:14;;;;;;;15.43;4.10;;;;;;;;;;5020345;28;20441;-40
2021/12/20 07:12:40;;;;;;;21.77;4.43;;;;;;;;;;5022094;28;20052;-40
2021/12/20 07:15:09;;;;;;;25.17;5.03;;;;;;;;;;5016789;28;20026;-40
2021/12/20 07:17:35;;;;;;;16.83;4.88;;;;;;;;;;5020212;28;20051;-40
2021/12/20 07:20:01;;;;;;;9.32;4.15;;;;;;;;;;5021187;28;20721;-39
2021/12/20 07:22:27;;;;;;;14.32;3.88;;;;;;;;;;5026833;28;20028;-39
2021/12/20 07:24:53;;;;;;;9.43;4.03;;;;;;;;;;5031095;28;20034;-42
2021/12/20 07:27:20;;;;;;;17.77;3.88;;;;;;;;;;5021463;28;20064;-40
2021/12/20 07:29:46;;;;;;;7.88;3.63;;;;;;;;;;5022908;28;20063;-40
2021/12/20 07:32:12;;;;;;;7.57;3.72;;;;;;;;;;5017393;28;20053;-40
2021/12/20 07:34:39;;;;;;;13.60;3.30;;;;;;;;;;5018114;28;20037;-39
2021/12/20 07:37:05;;;;;;;23.73;4.00;;;;;;;;;;5027008;28;20053;-40
2021/12/20 07:39:31;;;;;;;13.65;3.50;;;;;;;;;;5022217;28;20111;-42
2021/12/20 07:41:59;;;;;;;18.05;4.25;;;;;;;;;;5026107;28;20059;-41
2021/12/20 07:44:25;;;;;;;10.57;3.38;;;;;;;;;;5032692;28;20029;-42
2021/12/20 07:46:51;;;;;;;16.98;3.95;;;;;;;;;;5034399;28;20025;-37
2021/12/20 07:49:17;;;;;;;12.98;3.63;;;;;;;;;;5031514;28;20038;-38
2021/12/20 07:51:43;;;;;;;18.48;3.35;;;;;;;;;;5031219;28;20117;-36
2021/12/20 07:54:09;;;;;;;26.17;5.43;;;;;;;;;;5030952;28;20190;-37
2021/12/20 07:56:35;;;;;;;12.63;4.03;;;;;;;;;;5034377;28;20017;-39
2021/12/20 07:59:01;;;;;;;17.35;3.75;;;;;;;;;;5032873;28;20365;-39
2021/12/20 08:01:27;;;;;;;21.58;4.07;;;;;;;;;;5029114;28;20029;-39
2021/12/20 08:03:54;;;;;;;14.30;4.53;;;;;;;;;;5033843;28;20036;-39
2021/12/20 08:06:20;;;;;;;13.68;4.60;;;;;;;;;;5031445;28;20395;-39
2021/12/20 08:08:47;;;;;;;13.32;4.35;;;;;;;;;;5029545;28;20385;-39
2021/12/20 08:11:13;;;;;;;12.55;5.00;;;;;;;;;;5028750;28;20040;-38
2021/12/20 08:13:44;;;;;;;22.63;4.25;;;;;;;;;;5037272;28;20079;-38
2021/12/20 08:16:11;;;;;;;15.30;4.57;;;;;;;;;;5028823;28;20036;-39
2021/12/20 08:18:37;;;;;;;16.83;6.18;;;;;;;;;;5028173;28;20068;-39
2021/12/20 08:21:03;;;;;;;15.15;5.30;;;;;;;;;;5029710;28;20076;-39
2021/12/20 08:23:29;;;;;;;19.83;5.70;;;;;;;;;;5033165;28;20025;-39
2021/12/20 08:25:55;;;;;;;15.50;5.35;;;;;;;;;;5025399;28;20373;-39
2021/12/20 08:28:21;;;;;;;19.10;5.35;;;;;;;;;;5026349;28;20033;-39
2021/12/20 08:30:47;;;;;;;21.17;5.35;;;;;;;;;;5025709;28;20424;-40
2021/12/20 08:33:13;;;;;;;18.13;4.78;;;;;;;;;;5027186;28;20064;-39
2021/12/20 08:35:40;;;;;;;21.35;6.32;;;;;;;;;;5025815;28;20108;-39
2021/12/20 08:38:06;;;;;;;26.70;7.00;;;;;;;;;;5030535;28;20048;-39
2021/12/20 08:40:32;;;;;;;15.23;4.90;;;;;;;;;;5032645;28;20072;-40
2021/12/20 08:42:58;;;;;;;12.30;5.65;;;;;;;;;;5032498;28;20033;-39
2021/12/20 08:45:24;;;;;;;12.85;5.40;;;;;;;;;;5031453;28;20030;-39
2021/12/20 08:47:51;;;;;;;16.17;4.72;;;;;;;;;;5031497;28;20064;-39
2021/12/20 08:50:18;;;;;;;23.42;5.75;;;;;;;;;;5030635;28;20060;-39
2021/12/20 08:52:45;;;;;;;15.48;5.15;;;;;;;;;;5031614;28;20030;-39
2021/12/20 08:55:13;;;;;;;16.67;4.82;;;;;;;;;;5030609;28;20025;-39
2021/12/20 08:57:39;;;;;;;17.75;5.78;;;;;;;;;;5031279;28;20021;-39
2021/12/20 09:00:07;;;;;;;18.20;5.63;;;;;;;;;;5031191;28;20020;-39
2021/12/20 09:02:33;;;;;;;17.67;5.35;;;;;;;;;;5030008;28;20040;-39
2021/12/20 09:04:58;;;;;;;16.58;5.38;;;;;;;;;;5032792;28;20112;-39
2021/12/20 09:07:24;;;;;;;20.17;5.63;;;;;;;;;;5031535;28;20025;-39
2021/12/20 09:09:51;;;;;;;20.63;5.47;;;;;;;;;;5029906;28;20052;-39
2021/12/20 09:12:21;;;;;;;16.27;5.22;;;;;;;;;;5029282;28;20033;-39
2021/12/20 09:14:48;;;;;;;14.30;4.60;;;;;;;;;;5031913;28;20029;-40
2021/12/20 09:17:14;;;;;;;16.83;4.70;;;;;;;;;;5030934;28;20040;-39
2021/12/20 09:19:40;;;;;;;21.88;4.88;;;;;;;;;;5029230;28;20041;-39
2021/12/20 09:22:06;;;;;;;12.25;5.28;;;;;;;;;;5031494;28;20018;-39
2021/12/20 09:24:33;;;;;;;13.43;4.03;;;;;;;;;;5030412;28;20026;-39
2021/12/20 09:26:59;;;;;;;16.92;4.22;;;;;;;;;;5032540;28;20060;-39
2021/12/20 09:29:25;;;;;;;17.65;4.82;;;;;;;;;;5031302;28;20045;-38
2021/12/20 09:31:51;;;;;;;13.15;5.30;;;;;;;;;;5026320;28;20088;-37
2021/12/20 09:34:17;;;;;;;12.95;4.47;;;;;;;;;;5027067;28;20108;-37
2021/12/20 09:36:43;;;;;;;21.35;4.93;;;;;;;;;;5026044;28;20475;-39
2021/12/20 09:39:11;;;;;;;17.20;4.07;;;;;;;;;;5029688;28;20017;-38
2021/12/20 09:44:10;;;;;;;11.45;3.72;;;;;;;;;;5030022;28;20654;-37
2021/12/20 09:46:37;;;;;;;17.73;4.30;;;;;;;;;;5028972;28;20065;-37
2021/12/20 09:49:04;;;;;;;17.60;4.53;;;;;;;;;;5028141;28;20671;-39
2021/12/20 09:51:30;;;;;;;17.52;4.28;;;;;;;;;;5027908;28;20096;-38
2021/12/20 09:53:56;;;;;;;15.32;3.70;;;;;;;;;;5027756;28;20532;-38
2021/12/20 09:56:27;;;;;;;27.13;4.03;;;;;;;;;;5025944;28;20075;-37
2021/12/20 09:58:55;;;;;;;11.38;3.30;;;;;;;;;;5028235;28;20038;-39
2021/12/20 10:01:22;;;;;;;10.02;3.50;;;;;;;;;;5028597;28;20028;-38
2021/12/20 10:03:49;;;;;;;14.32;2.65;;;;;;;;;;5029018;28;20052;-40
2021/12/20 10:06:15;;;;;;;9.63;2.70;;;;;;;;;;5027598;28;20644;-37
2021/12/20 10:08:52;;;;;;;13.57;2.50;;;;;;;;;;5026622;28;20029;-38
2021/12/20 10:11:20;;;;;;;14.25;2.40;;;;;;;;;;5026579;28;20119;-37
2021/12/20 10:13:46;;;;;;;12.40;2.35;;;;;;;;;;5027031;28;20052;-38
2021/12/20 10:16:15;;;;;;;6.18;1.88;;;;;;;;;;5027024;28;20068;-37
2021/12/20 10:18:41;;;;;;;9.05;2.30;;;;;;;;;;5026868;28;20051;-37
2021/12/20 10:21:07;;;;;;;15.00;3.05;;;;;;;;;;5025945;28;20057;-38
2021/12/20 10:23:41;;;;;;;10.40;2.45;;;;;;;;;;5027756;28;20064;-37
2021/12/20 10:26:15;;;;;;;11.35;2.70;;;;;;;;;;5026970;28;20101;-39
2021/12/20 10:28:42;;;;;;;10.70;2.72;;;;;;;;;;5025855;28;20029;-37
2021/12/20 10:31:10;;;;;;;7.68;2.53;;;;;;;;;;5027053;28;20069;-37
2021/12/20 10:33:36;;;;;;;9.23;2.38;;;;;;;;;;5025420;28;20083;-37
2021/12/20 10:36:06;;;;;;;16.98;2.80;;;;;;;;;;5024525;28;20032;-37
2021/12/20 10:38:40;;;;;;;16.95;2.53;;;;;;;;;;5024695;28;20032;-37
2021/12/20 10:41:34;;;;;;;6.38;2.58;;;;;;;;;;5026688;28;20159;-40
2021/12/20 10:44:02;;;;;;;5.32;2.38;;;;;;;;;;5030746;28;20175;-38
2021/12/20 10:46:29;;;;;;;9.77;2.42;;;;;;;;;;5030399;28;20025;-37
2021/12/20 10:49:01;;;;;;;11.80;2.67;;;;;;;;;;5028581;28;20025;-37
2021/12/20 10:51:29;;;;;;;7.70;2.83;;;;;;;;;;5009405;28;20027;-37
2021/12/20 10:54:01;;;;;;;12.43;2.50;;;;;;;;;;5029687;28;20049;-37
2021/12/20 10:56:28;;;;;;;10.63;2.35;;;;;;;;;;5032787;28;20022;-37
2021/12/20 10:58:55;;;;;;;11.18;3.50;;;;;;;;;;5033133;28;20372;-38
2021/12/20 11:01:28;;;;;;;13.00;2.30;;;;;;;;;;5032451;28;20068;-37
2021/12/20 11:03:56;;;;;;;8.90;2.53;;;;;;;;;;5031093;28;20029;-37
2021/12/20 11:09:08;;;;;;;9.48;2.28;;;;;;;;;;5028708;28;20033;-38
2021/12/20 11:11:34;;;;;;;;;;;;;;;;;;5032478;28;20029;-38
2021/12/20 11:14:01;;;;;;;10.60;2.72;;;;;;;;;;5032427;28;19955;-38
2021/12/20 11:16:27;;;;;;;7.55;2.80;;;;;;;;;;5030302;28;20055;-38
2021/12/20 11:19:10;;;;;;;9.02;2.08;;;;;;;;;;5030712;28;20113;-38
2021/12/20 11:21:54;;;;;;;10.20;2.38;;;;;;;;;;5031950;28;20060;-37
2021/12/20 11:24:25;;;;;;;10.18;2.80;;;;;;;;;;5030951;28;20029;-37
2021/12/20 11:26:51;;;;;;;15.63;2.33;;;;;;;;;;5034057;28;20022;-38
2021/12/20 11:29:17;;;;;;;20.33;3.33;;;;;;;;;;5032564;28;20053;-37
2021/12/20 11:31:45;;;;;;;14.40;3.10;;;;;;;;;;5031513;28;20477;-37
2021/12/20 11:34:11;;;;;;;9.38;2.60;;;;;;;;;;5031288;28;20029;-37
2021/12/20 11:36:37;;;;;;;13.18;3.13;;;;;;;;;;5033935;28;20048;-38
2021/12/20 11:39:05;;;;;;;13.25;1.95;;;;;;;;;;5031072;28;20084;-40
2021/12/20 11:41:31;;;;;;;11.77;3.35;;;;;;;;;;5030855;28;21248;-39
2021/12/20 11:43:58;;;;;;;11.60;1.85;;;;;;;;;;5030220;28;20523;-37
2021/12/20 11:46:25;;;;;;;12.25;2.63;;;;;;;;;;5030611;28;20064;-38
2021/12/20 11:48:52;;;;;;;4.90;2.17;;;;;;;;;;5030772;28;20104;-37
2021/12/20 11:51:19;;;;;;;10.68;2.30;;;;;;;;;;5030152;28;20037;-38
2021/12/20 11:53:45;;;;;;;8.38;1.70;;;;;;;;;;5030997;28;20033;-38
2021/12/20 11:56:11;;;;;;;17.75;2.58;;;;;;;;;;5029526;28;20473;-38
2021/12/20 11:58:45;;;;;;;8.95;2.15;;;;;;;;;;5029968;28;20104;-40
2021/12/20 12:01:15;;;;;;;8.45;2.42;;;;;;;;;;5028488;28;20025;-40
2021/12/20 12:03:51;;;;;;;6.72;2.42;;;;;;;;;;5028231;28;20045;-39
2021/12/20 12:06:16;;;;;;;;;;;;;;;;;;5030332;28;20065;-39
2021/12/20 12:08:43;;;;;;;20.08;2.35;;;;;;;;;;5029580;28;19948;-36
2021/12/20 12:11:09;;;;;;;6.15;1.92;;;;;;;;;;5027789;28;20018;-39
2021/12/20 12:13:49;;;;;;;12.38;2.90;;;;;;;;;;5030926;28;20075;-39
2021/12/20 12:16:28;;;;;;;10.32;1.90;;;;;;;;;;5026309;28;20029;-40
2021/12/20 12:18:54;;;;;;;15.32;1.92;;;;;;;;;;5029666;28;20037;-39
2021/12/20 12:21:38;;;;;;;5.88;2.10;;;;;;;;;;5030091;28;20057;-40
2021/12/20 12:24:05;;;;;;;14.40;2.67;;;;;;;;;;5025787;28;20034;-39
2021/12/20 12:26:33;;;;;;;11.57;2.50;;;;;;;;;;5029991;28;20037;-37
2021/12/20 12:28:59;;;;;;;8.30;2.70;;;;;;;;;;5029620;28;20069;-39
2021/12/20 12:31:26;;;;;;;11.57;3.65;;;;;;;;;;5019993;28;20535;-38
2021/12/20 12:34:06;;;;;;;8.25;2.10;;;;;;;;;;5030050;28;20511;-38
2021/12/20 12:36:39;;;;;;;8.90;2.17;;;;;;;;;;5027532;28;20040;-40
2021/12/20 12:39:12;;;;;;;7.80;2.17;;;;;;;;;;5025933;28;20600;-39
2021/12/20 12:41:49;;;;;;;6.35;1.80;;;;;;;;;;5011009;28;20037;-39
2021/12/20 12:44:19;;;;;;;7.65;1.65;;;;;;;;;;5031994;28;20488;-39
2021/12/20 12:46:47;;;;;;;11.52;2.15;;;;;;;;;;5029762;28;20539;-40
2021/12/20 12:49:22;;;;;;;6.50;1.90;;;;;;;;;;5030056;28;20484;-38
2021/12/20 12:51:48;;;;;;;10.93;2.40;;;;;;;;;;5026833;28;20029;-39
2021/12/20 12:54:38;;;;;;;5.93;1.77;;;;;;;;;;5027002;28;20025;-42
2021/12/20 12:57:10;;;;;;;10.55;2.05;;;;;;;;;;4982590;28;20030;-40
2021/12/20 12:59:49;;;;;;;8.45;2.08;;;;;;;;;;5018308;28;20088;-40
2021/12/20 13:02:23;;;;;;;6.03;1.45;;;;;;;;;;5024360;28;20025;-39
2021/12/20 13:04:54;;;;;;;7.22;2.17;;;;;;;;;;5021889;28;20079;-40
2021/12/20 13:07:21;;;;;;;3.42;1.60;;;;;;;;;;5025148;28;20021;-40
2021/12/20 13:09:47;;;;;;;9.60;2.70;;;;;;;;;;5025078;28;20503;-40
2021/12/20 13:18:08;;;;;;;4.82;1.63;;;;;;;;;;5030148;28;20048;-39
2021/12/20 13:20:37;;;;;;;5.97;2.03;;;;;;;;;;5031120;28;20036;-39
2021/12/20 13:23:06;;;;;;;7.72;1.65;;;;;;;;;;5024228;28;20059;-39
2021/12/20 13:25:43;;;;;;;12.32;2.35;;;;;;;;;;5026755;28;20045;-40
2021/12/20 13:28:14;;;;;;;9.32;2.20;;;;;;;;;;5030085;28;20026;-41
2021/12/20 13:30:42;;;;;;;6.32;2.10;;;;;;;;;;5031215;28;20017;-40
2021/12/20 13:33:08;;;;;;;6.35;1.92;;;;;;;;;;5004306;28;20021;-40
2021/12/20 13:35:36;;;;;;;11.90;2.35;;;;;;;;;;5020399;28;20025;-39
2021/12/20 13:38:13;;;;;;;10.35;1.80;;;;;;;;;;5023340;28;20038;-39
2021/12/20 13:40:43;;;;;;;4.40;1.60;;;;;;;;;;5024383;28;20113;-40
2021/12/20 13:43:13;;;;;;;6.65;1.83;;;;;;;;;;5006177;28;20025;-39
2021/12/20 13:45:39;;;;;;;3.70;1.40;;;;;;;;;;5025527;28;20033;-39
2021/12/20 13:48:09;;;;;;;9.48;2.17;;;;;;;;;;5025309;28;20036;-44
2021/12/20 13:50:35;;;;;;;8.13;2.70;;;;;;;;;;5023482;28;20558;-39
2021/12/20 13:53:01;;;;;;;6.65;2.20;;;;;;;;;;5018726;28;20652;-38
2021/12/20 13:55:27;;;;;;;6.43;2.22;;;;;;;;;;5016214;28;20021;-38
2021/12/20 13:57:53;;;;;;;13.80;2.42;;;;;;;;;;5016876;28;20405;-39
2021/12/20 14:00:19;;;;;;;9.70;1.98;;;;;;;;;;5016939;28;20053;-39
2021/12/20 14:02:46;;;;;;;15.85;1.92;;;;;;;;;;5019898;28;20057;-40
2021/12/20 14:05:17;;;;;;;6.20;1.80;;;;;;;;;;5027468;28;20070;-40
2021/12/20 14:07:45;;;;;;;11.80;1.85;;;;;;;;;;5022903;28;20021;-38
2021/12/20 14:10:27;;;;;;;4.90;1.95;;;;;;;;;;5021615;28;20472;-39
2021/12/20 14:12:58;;;;;;;11.98;1.83;;;;;;;;;;5026324;28;20040;-39
2021/12/20 14:15:26;;;;;;;5.90;1.63;;;;;;;;;;5032416;28;20025;-39
2021/12/20 14:17:56;;;;;;;4.03;1.58;;;;;;;;;;5035217;28;20029;-39
2021/12/20 14:20:24;;;;;;;6.70;1.98;;;;;;;;;;5031063;28;20018;-40
2021/12/20 14:22:58;;;;;;;8.73;2.47;;;;;;;;;;5032769;28;20030;-41
2021/12/20 14:25:35;;;;;;;5.25;2.08;;;;;;;;;;5027180;28;20037;-39
2021/12/20 14:28:02;;;;;;;3.88;1.58;;;;;;;;;;5031356;28;20068;-42
2021/12/20 14:30:28;;;;;;;10.73;2.58;;;;;;;;;;5036433;28;20049;-39
2021/12/20 14:32:54;;;;;;;6.90;2.33;;;;;;;;;;5029448;28;20045;-39
2021/12/20 14:35:26;;;;;;;12.52;2.70;;;;;;;;;;5030280;28;20044;-38
2021/12/20 14:37:52;;;;;;;16.23;6.43;;;;;;;;;;5031495;28;20571;-38
2021/12/20 14:40:37;;;;;;;18.65;7.20;;;;;;;;;;5033073;28;20041;-40
2021/12/20 14:43:04;;;;;;;9.50;3.67;;;;;;;;;;5031934;28;20463;-40
2021/12/20 14:45:30;;;;;;;6.47;2.75;;;;;;;;;;5028983;28;20021;-40
2021/12/20 14:48:15;;;;;;;13.15;2.85;;;;;;;;;;5030436;28;20075;-41
2021/12/20 14:50:46;;;;;;;10.03;2.93;;;;;;;;;;5030321;28;20022;-40
2021/12/20 14:53:27;;;;;;;14.05;2.97;;;;;;;;;;5026226;28;20021;-41
2021/12/20 14:55:54;;;;;;;9.60;3.28;;;;;;;;;;5024284;28;20029;-40
2021/12/20 14:58:21;;;;;;;10.07;3.25;;;;;;;;;;5027344;28;20107;-39
2021/12/20 15:00:48;;;;;;;10.75;3.05;;;;;;;;;;5024784;28;20052;-40
2021/12/20 15:03:17;;;;;;;8.02;2.42;;;;;;;;;;5023307;28;20069;-39